Muehldorf, Germany

2:21 AM CET on February 11, 2016 (GMT +0100)
Polling by Mhldorf | | Change Station
CLOSE
Current Station
Personal Weather Station
Location: Polling, BAYERN
Elevation: 1283 ft
Nearby Weather Stations

Elev 1283 ft 48.22 °N, 12.56 °E | Updated 6 seconds ago

Light Snow
Light Snow Rain
33.4 °F
Feels Like 28 °F
N
5.8
Wind Variable Wind from WNW
Gusts 7.4 mph

Today
High -- | Low -- °F
--% Chance of Precip.
Yesterday
High -- | Low -- °F
Precip. -- in
Pressure 29.65 in
Visibility 6.2 miles
Clouds Few 1200 ft
Mostly Cloudy 4500 ft
Windchill 28 °F
Dew Point 18 °F
Humidity 53%
Rainfall 0.00 in
Snow Depth Not available.
7:24 AM 5:24 PM
Waxing Crescent, 8% visible
METAR EDDM 110050Z 25019KT 9999 -SNRA FEW012 BKN045 01/M01 Q1004 RERASN TEMPO SNRA
Pressure 29.65 in
Visibility 6.2 miles
Clouds Few 1200 ft
Mostly Cloudy 4500 ft
Windchill 28 °F
Dew Point 18 °F
Humidity 53%
Rainfall 0.00 in
Snow Depth Not available.
7:24 AM 5:24 PM
Waxing Crescent, 8% visible
METAR EDDM 110050Z 25019KT 9999 -SNRA FEW012 BKN045 01/M01 Q1004 RERASN TEMPO SNRA

10-Day Weather Forecast

Almanac

Astronomy

Feb. 11, 2016 Rise Set
Actual Time
Civil Twilight
Nautical Twilight
Astronomical Twilight
Moon
Length of Visible Light
Length of Day
Tomorrow will be .
, % of the Moon is Illuminated

Today's Extremes

Country Highs Country Lows

Community

WunderPhotos

Upload Photos

1,891,963 photos uploaded!

WunderBlog® & News

Nearby

Air Quality

  Air Quality AQ Index Pollutant
Not available.

Snow Depth

Station Depth Elevation

Earthquake Activity

City Distance Mag. Time & Date
Minimum magnitude displayed is 2.5.

Coastal Water Temperatures

Place Temperature

Stations

Nearby Weather Stations

Station Location Temp. Windchill Dew Point Humidity Wind Precip. Elev Updated Type